Price, Canada
Current Conditions -  °F | °C
As of 2:00 PM on Friday 24 Oct 2014 (Local Time) from CYYY Reporting Station
Broken Clouds Broken Clouds  
Wind Chill: 35°   Ceiling: 8000
Heat Index: 43°   Visibility: 30mi
Dew Point: 34°   Wind: 16mph
Humidity: 70%   Direction: 50°NE
Pressure: 29.85"   Gusts: 24mph
Location:  48.6°N, 68.13°W
Report Text: CYYY 241800Z 05014G21KT 30SM FEW020 BKN080 06/01 A2985 RMK SC2AC5 SLP109
Loading
Personal Weather Stations






























Interactive Weather Map
Tropical Storm Tracking
New forecast layout! Learn more

10-Day Weather Forecast

Advertisements
Track Severe Weather on mobile